sensor_id;sensor_type;location;lat;lon;timestamp;pressure;altitude;pressure_sealevel;temperature;humidity
21869;BME280;11099;41.564;23.296;2023-04-22T00:01:35;97188.19;;;15.12;64.73
21869;BME280;11099;41.564;23.296;2023-04-22T00:04:00;97191.91;;;15.08;64.61
21869;BME280;11099;41.564;23.296;2023-04-22T00:06:26;97159.03;;;14.67;65.34
21869;BME280;11099;41.564;23.296;2023-04-22T00:08:52;97163.13;;;14.24;66.98
21869;BME280;11099;41.564;23.296;2023-04-22T00:11:17;97114.66;;;14.01;67.95
21869;BME280;11099;41.564;23.296;2023-04-22T00:13:43;97158.63;;;14.40;66.96
21869;BME280;11099;41.564;23.296;2023-04-22T00:16:09;97165.19;;;14.43;66.88
21869;BME280;11099;41.564;23.296;2023-04-22T00:18:35;97173.47;;;14.38;67.24
21869;BME280;11099;41.564;23.296;2023-04-22T00:21:01;97241.06;;;14.99;65.97
21869;BME280;11099;41.564;23.296;2023-04-22T00:23:27;97191.09;;;14.51;66.19
21869;BME280;11099;41.564;23.296;2023-04-22T00:25:52;97191.41;;;14.62;66.84
21869;BME280;11099;41.564;23.296;2023-04-22T00:28:18;97164.47;;;14.70;66.00
21869;BME280;11099;41.564;23.296;2023-04-22T00:30:43;97245.34;;;15.44;65.64
21869;BME280;11099;41.564;23.296;2023-04-22T00:33:09;97132.38;;;14.58;65.72
21869;BME280;11099;41.564;23.296;2023-04-22T00:35:34;97217.78;;;14.88;66.86
21869;BME280;11099;41.564;23.296;2023-04-22T00:38:00;97166.13;;;14.75;66.25
21869;BME280;11099;41.564;23.296;2023-04-22T00:40:25;97259.00;;;15.67;65.17
21869;BME280;11099;41.564;23.296;2023-04-22T00:42:51;97183.31;;;15.02;66.20
21869;BME280;11099;41.564;23.296;2023-04-22T00:45:18;97261.09;;;16.05;64.60
21869;BME280;11099;41.564;23.296;2023-04-22T00:47:44;97277.53;;;16.20;64.37
21869;BME280;11099;41.564;23.296;2023-04-22T00:50:10;97183.69;;;15.76;63.12
21869;BME280;11099;41.564;23.296;2023-04-22T00:52:36;97141.94;;;15.31;63.79
21869;BME280;11099;41.564;23.296;2023-04-22T00:55:01;97269.63;;;16.43;62.58
21869;BME280;11099;41.564;23.296;2023-04-22T00:57:28;97279.34;;;15.40;68.05
21869;BME280;11099;41.564;23.296;2023-04-22T00:59:54;97166.00;;;14.99;66.23
21869;BME280;11099;41.564;23.296;2023-04-22T01:02:19;97178.06;;;15.06;66.34
21869;BME280;11099;41.564;23.296;2023-04-22T01:04:45;97162.03;;;14.65;68.01
21869;BME280;11099;41.564;23.296;2023-04-22T01:07:11;97201.78;;;14.63;69.49
21869;BME280;11099;41.564;23.296;2023-04-22T01:09:37;97154.66;;;14.10;72.36
21869;BME280;11099;41.564;23.296;2023-04-22T01:12:04;97171.00;;;14.45;71.36
21869;BME280;11099;41.564;23.296;2023-04-22T01:14:30;97247.47;;;15.23;70.74
21869;BME280;11099;41.564;23.296;2023-04-22T01:16:56;97114.78;;;14.45;69.96
21869;BME280;11099;41.564;23.296;2023-04-22T01:19:22;97273.78;;;15.33;71.87
21869;BME280;11099;41.564;23.296;2023-04-22T01:21:52;97190.00;;;14.80;72.16
21869;BME280;11099;41.564;23.296;2023-04-22T01:24:18;97201.88;;;14.67;73.02
21869;BME280;11099;41.564;23.296;2023-04-22T01:26:46;97259.75;;;15.24;72.13
21869;BME280;11099;41.564;23.296;2023-04-22T01:29:12;97274.91;;;15.32;71.47
21869;BME280;11099;41.564;23.296;2023-04-22T01:31:38;97217.47;;;14.77;72.66
21869;BME280;11099;41.564;23.296;2023-04-22T01:34:04;97289.22;;;15.80;70.88
21869;BME280;11099;41.564;23.296;2023-04-22T01:36:30;97285.59;;;16.20;69.46
21869;BME280;11099;41.564;23.296;2023-04-22T01:38:57;97249.47;;;16.01;68.30
21869;BME280;11099;41.564;23.296;2023-04-22T01:41:23;97301.06;;;15.63;70.91
21869;BME280;11099;41.564;23.296;2023-04-22T01:43:50;97238.63;;;15.50;69.78
21869;BME280;11099;41.564;23.296;2023-04-22T01:46:17;97215.59;;;15.49;68.72
21869;BME280;11099;41.564;23.296;2023-04-22T01:48:42;97309.41;;;15.90;70.63
21869;BME280;11099;41.564;23.296;2023-04-22T01:51:15;97239.66;;;15.62;70.95
21869;BME280;11099;41.564;23.296;2023-04-22T01:53:40;97210.06;;;15.14;71.15
21869;BME280;11099;41.564;23.296;2023-04-22T01:56:06;97147.13;;;14.80;71.49
21869;BME280;11099;41.564;23.296;2023-04-22T01:58:32;97214.78;;;14.89;73.19
21869;BME280;11099;41.564;23.296;2023-04-22T02:00:57;97188.13;;;14.04;77.04
21869;BME280;11099;41.564;23.296;2023-04-22T02:03:23;97185.44;;;13.67;79.84
21869;BME280;11099;41.564;23.296;2023-04-22T02:05:49;97265.03;;;13.70;82.76
21869;BME280;11099;41.564;23.296;2023-04-22T02:08:14;97283.34;;;14.78;79.99
21869;BME280;11099;41.564;23.296;2023-04-22T02:10:40;97178.69;;;14.46;76.96
21869;BME280;11099;41.564;23.296;2023-04-22T02:13:05;97255.19;;;14.84;77.44
21869;BME280;11099;41.564;23.296;2023-04-22T02:15:31;97256.09;;;14.76;78.16
21869;BME280;11099;41.564;23.296;2023-04-22T02:17:56;97194.13;;;14.25;78.15
21869;BME280;11099;41.564;23.296;2023-04-22T02:20:21;97217.31;;;14.21;78.89
21869;BME280;11099;41.564;23.296;2023-04-22T02:22:47;97271.97;;;14.32;79.65
21869;BME280;11099;41.564;23.296;2023-04-22T02:25:13;97198.19;;;14.07;79.66
21869;BME280;11099;41.564;23.296;2023-04-22T02:27:38;97212.22;;;14.04;79.62
21869;BME280;11099;41.564;23.296;2023-04-22T02:30:04;97245.41;;;14.39;80.26
21869;BME280;11099;41.564;23.296;2023-04-22T02:32:30;97242.94;;;14.71;78.69
21869;BME280;11099;41.564;23.296;2023-04-22T02:34:56;97244.78;;;14.95;77.81
21869;BME280;11099;41.564;23.296;2023-04-22T02:37:21;97198.69;;;14.49;77.75
21869;BME280;11099;41.564;23.296;2023-04-22T02:39:48;97208.03;;;14.67;77.08
21869;BME280;11099;41.564;23.296;2023-04-22T02:42:13;97216.69;;;14.76;77.62
21869;BME280;11099;41.564;23.296;2023-04-22T02:44:39;97275.47;;;14.97;77.69
21869;BME280;11099;41.564;23.296;2023-04-22T02:47:05;97250.09;;;15.07;76.40
21869;BME280;11099;41.564;23.296;2023-04-22T02:49:31;97221.88;;;14.97;76.42
21869;BME280;11099;41.564;23.296;2023-04-22T02:51:57;97219.69;;;14.47;77.72
21869;BME280;11099;41.564;23.296;2023-04-22T02:54:22;97246.22;;;14.52;77.10
21869;BME280;11099;41.564;23.296;2023-04-22T02:56:48;97240.53;;;14.54;76.70
21869;BME280;11099;41.564;23.296;2023-04-22T02:59:13;97225.53;;;14.65;75.93
21869;BME280;11099;41.564;23.296;2023-04-22T03:01:38;97151.78;;;13.54;81.29
21869;BME280;11099;41.564;23.296;2023-04-22T03:04:04;97202.59;;;13.66;82.45
21869;BME280;11099;41.564;23.296;2023-04-22T03:06:29;97263.06;;;14.40;82.34
21869;BME280;11099;41.564;23.296;2023-04-22T03:08:56;97306.19;;;15.00;80.10
21869;BME280;11099;41.564;23.296;2023-04-22T03:11:21;97153.44;;;13.34;82.82
21869;BME280;11099;41.564;23.296;2023-04-22T03:13:47;97187.75;;;13.32;83.64
21869;BME280;11099;41.564;23.296;2023-04-22T03:16:12;97266.06;;;14.14;82.33
21869;BME280;11099;41.564;23.296;2023-04-22T03:18:38;97185.66;;;14.11;79.22
21869;BME280;11099;41.564;23.296;2023-04-22T03:21:03;97224.78;;;14.28;77.16
21869;BME280;11099;41.564;23.296;2023-04-22T03:23:29;97226.03;;;14.30;78.76
21869;BME280;11099;41.564;23.296;2023-04-22T03:25:54;97223.00;;;13.70;80.63
21869;BME280;11099;41.564;23.296;2023-04-22T03:28:20;97152.88;;;12.74;79.81
21869;BME280;11099;41.564;23.296;2023-04-22T03:30:45;97226.84;;;13.36;80.69
21869;BME280;11099;41.564;23.296;2023-04-22T03:33:11;97276.06;;;13.68;79.57
21869;BME280;11099;41.564;23.296;2023-04-22T03:35:36;97308.56;;;14.04;79.12
21869;BME280;11099;41.564;23.296;2023-04-22T03:38:02;97229.50;;;13.24;79.78
21869;BME280;11099;41.564;23.296;2023-04-22T03:40:27;97269.19;;;13.80;78.73
21869;BME280;11099;41.564;23.296;2023-04-22T03:42:53;97304.13;;;14.20;78.83
21869;BME280;11099;41.564;23.296;2023-04-22T03:45:18;97282.63;;;13.71;80.37
21869;BME280;11099;41.564;23.296;2023-04-22T03:47:44;97203.47;;;13.45;80.34
21869;BME280;11099;41.564;23.296;2023-04-22T03:50:09;97236.38;;;13.58;80.57
21869;BME280;11099;41.564;23.296;2023-04-22T03:52:35;97248.59;;;13.47;80.95
21869;BME280;11099;41.564;23.296;2023-04-22T03:55:00;97216.78;;;13.00;81.83
21869;BME280;11099;41.564;23.296;2023-04-22T03:57:26;97229.97;;;13.38;80.77
21869;BME280;11099;41.564;23.296;2023-04-22T03:59:51;97236.81;;;13.60;80.09
21869;BME280;11099;41.564;23.296;2023-04-22T04:02:17;97235.09;;;13.10;82.07
21869;BME280;11099;41.564;23.296;2023-04-22T04:04:42;97247.66;;;13.10;83.60
21869;BME280;11099;41.564;23.296;2023-04-22T04:07:08;97295.78;;;13.10;86.46
21869;BME280;11099;41.564;23.296;2023-04-22T04:09:33;97245.38;;;13.00;85.75
21869;BME280;11099;41.564;23.296;2023-04-22T04:11:59;97266.50;;;13.13;85.64
21869;BME280;11099;41.564;23.296;2023-04-22T04:14:24;97356.53;;;14.21;83.42
21869;BME280;11099;41.564;23.296;2023-04-22T04:16:49;97260.03;;;13.68;81.80
21869;BME280;11099;41.564;23.296;2023-04-22T04:19:15;97308.06;;;13.89;80.73
21869;BME280;11099;41.564;23.296;2023-04-22T04:21:41;97353.72;;;14.51;79.32
21869;BME280;11099;41.564;23.296;2023-04-22T04:24:06;97242.00;;;12.90;83.71
21869;BME280;11099;41.564;23.296;2023-04-22T04:26:32;97323.66;;;13.63;84.27
21869;BME280;11099;41.564;23.296;2023-04-22T04:28:58;97317.22;;;13.76;82.72
21869;BME280;11099;41.564;23.296;2023-04-22T04:31:26;97348.63;;;14.24;80.80
21869;BME280;11099;41.564;23.296;2023-04-22T04:33:52;97184.31;;;13.56;79.02
21869;BME280;11099;41.564;23.296;2023-04-22T04:36:17;97339.69;;;15.06;77.08
21869;BME280;11099;41.564;23.296;2023-04-22T04:38:44;97224.94;;;14.84;74.83
21869;BME280;11099;41.564;23.296;2023-04-22T04:41:11;97241.81;;;15.12;70.79
21869;BME280;11099;41.564;23.296;2023-04-22T04:43:36;97247.06;;;15.09;69.81
21869;BME280;11099;41.564;23.296;2023-04-22T04:46:02;97273.53;;;15.66;68.86
21869;BME280;11099;41.564;23.296;2023-04-22T04:48:28;97238.59;;;15.94;66.91
21869;BME280;11099;41.564;23.296;2023-04-22T04:50:53;97328.66;;;16.90;63.78
21869;BME280;11099;41.564;23.296;2023-04-22T04:53:20;97328.25;;;16.88;62.98
21869;BME280;11099;41.564;23.296;2023-04-22T04:55:46;97358.72;;;17.11;63.27
21869;BME280;11099;41.564;23.296;2023-04-22T04:58:12;97279.69;;;16.14;67.79
21869;BME280;11099;41.564;23.296;2023-04-22T05:00:37;97337.53;;;15.52;73.65
21869;BME280;11099;41.564;23.296;2023-04-22T05:03:03;97344.31;;;15.34;75.83
21869;BME280;11099;41.564;23.296;2023-04-22T05:05:28;97306.03;;;14.68;77.51
21869;BME280;11099;41.564;23.296;2023-04-22T05:07:54;97329.34;;;15.20;75.06
21869;BME280;11099;41.564;23.296;2023-04-22T05:10:20;97337.81;;;16.06;70.46
21869;BME280;11099;41.564;23.296;2023-04-22T05:12:49;97318.25;;;17.43;65.83
21869;BME280;11099;41.564;23.296;2023-04-22T05:15:15;97319.78;;;17.44;63.46
21869;BME280;11099;41.564;23.296;2023-04-22T05:17:41;97330.84;;;17.58;62.33
21869;BME280;11099;41.564;23.296;2023-04-22T05:20:07;97268.84;;;16.93;61.97
21869;BME280;11099;41.564;23.296;2023-04-22T05:22:34;97336.94;;;17.55;59.31
21869;BME280;11099;41.564;23.296;2023-04-22T05:25:02;97374.38;;;18.03;62.45
21869;BME280;11099;41.564;23.296;2023-04-22T05:27:28;97323.09;;;18.19;63.25
21869;BME280;11099;41.564;23.296;2023-04-22T05:29:54;97327.00;;;18.02;65.19
21869;BME280;11099;41.564;23.296;2023-04-22T05:32:20;97351.09;;;18.37;66.38
21869;BME280;11099;41.564;23.296;2023-04-22T05:34:46;97375.28;;;18.33;67.06
21869;BME280;11099;41.564;23.296;2023-04-22T05:37:11;97263.03;;;17.95;66.66
21869;BME280;11099;41.564;23.296;2023-04-22T05:39:37;97355.81;;;18.93;65.47
21869;BME280;11099;41.564;23.296;2023-04-22T05:42:02;97340.06;;;18.46;66.61
21869;BME280;11099;41.564;23.296;2023-04-22T05:44:28;97365.63;;;18.78;67.20
21869;BME280;11099;41.564;23.296;2023-04-22T05:46:54;97350.63;;;18.08;68.42
21869;BME280;11099;41.564;23.296;2023-04-22T05:49:19;97332.13;;;18.30;68.41
21869;BME280;11099;41.564;23.296;2023-04-22T05:51:45;97349.41;;;18.29;69.02
21869;BME280;11099;41.564;23.296;2023-04-22T05:54:10;97356.69;;;18.51;67.73
21869;BME280;11099;41.564;23.296;2023-04-22T05:56:36;97373.72;;;19.05;66.60
21869;BME280;11099;41.564;23.296;2023-04-22T05:59:01;97309.66;;;17.99;67.39
21869;BME280;11099;41.564;23.296;2023-04-22T06:01:27;97347.06;;;17.81;71.39
21869;BME280;11099;41.564;23.296;2023-04-22T06:03:52;97268.81;;;18.43;66.47
21869;BME280;11099;41.564;23.296;2023-04-22T06:06:18;97384.63;;;18.85;67.14
21869;BME280;11099;41.564;23.296;2023-04-22T06:08:43;97388.16;;;19.46;65.62
21869;BME280;11099;41.564;23.296;2023-04-22T06:11:09;97252.88;;;18.87;62.40
21869;BME280;11099;41.564;23.296;2023-04-22T06:13:34;97284.69;;;19.72;60.78
21869;BME280;11099;41.564;23.296;2023-04-22T06:16:00;97291.16;;;20.01;58.66
21869;BME280;11099;41.564;23.296;2023-04-22T06:18:25;97391.00;;;21.30;56.09
21869;BME280;11099;41.564;23.296;2023-04-22T06:20:51;97338.41;;;20.21;56.50
21869;BME280;11099;41.564;23.296;2023-04-22T06:23:17;97297.81;;;20.14;57.23
21869;BME280;11099;41.564;23.296;2023-04-22T06:25:42;97307.66;;;20.37;56.25
21869;BME280;11099;41.564;23.296;2023-04-22T06:28:08;97266.53;;;20.13;56.50
21869;BME280;11099;41.564;23.296;2023-04-22T06:30:34;97341.97;;;19.88;59.60
21869;BME280;11099;41.564;23.296;2023-04-22T06:32:59;97304.41;;;20.20;59.00
21869;BME280;11099;41.564;23.296;2023-04-22T06:35:25;97350.72;;;20.15;60.54
21869;BME280;11099;41.564;23.296;2023-04-22T06:37:51;97277.34;;;18.22;64.54
21869;BME280;11099;41.564;23.296;2023-04-22T06:40:16;97271.59;;;18.50;64.60
21869;BME280;11099;41.564;23.296;2023-04-22T06:42:42;97381.41;;;18.30;67.49
21869;BME280;11099;41.564;23.296;2023-04-22T06:45:08;97384.50;;;18.55;66.75
21869;BME280;11099;41.564;23.296;2023-04-22T06:47:39;97374.75;;;18.24;66.77
21869;BME280;11099;41.564;23.296;2023-04-22T06:50:09;97395.56;;;18.69;66.50
21869;BME280;11099;41.564;23.296;2023-04-22T06:52:35;97373.91;;;19.19;64.60
21869;BME280;11099;41.564;23.296;2023-04-22T06:55:01;97286.78;;;18.35;65.35
21869;BME280;11099;41.564;23.296;2023-04-22T06:57:30;97399.38;;;18.95;66.15
21869;BME280;11099;41.564;23.296;2023-04-22T06:59:56;97292.06;;;18.55;64.58
21869;BME280;11099;41.564;23.296;2023-04-22T07:02:21;97380.06;;;19.49;63.35
21869;BME280;11099;41.564;23.296;2023-04-22T07:04:47;97301.22;;;18.73;64.21
21869;BME280;11099;41.564;23.296;2023-04-22T07:07:12;97309.75;;;18.52;66.46
21869;BME280;11099;41.564;23.296;2023-04-22T07:09:38;97343.84;;;18.90;66.23
21869;BME280;11099;41.564;23.296;2023-04-22T07:12:04;97394.72;;;18.92;67.23
21869;BME280;11099;41.564;23.296;2023-04-22T07:14:30;97342.25;;;18.86;65.54
21869;BME280;11099;41.564;23.296;2023-04-22T07:16:56;97357.34;;;19.20;64.24
21869;BME280;11099;41.564;23.296;2023-04-22T07:19:21;97309.91;;;18.63;64.74
21869;BME280;11099;41.564;23.296;2023-04-22T07:21:47;97269.97;;;18.46;65.51
21869;BME280;11099;41.564;23.296;2023-04-22T07:24:12;97387.22;;;19.65;64.08
21869;BME280;11099;41.564;23.296;2023-04-22T07:26:42;97398.31;;;19.56;62.53
21869;BME280;11099;41.564;23.296;2023-04-22T07:29:08;97362.31;;;19.48;61.88
21869;BME280;11099;41.564;23.296;2023-04-22T07:31:36;97363.75;;;18.82;64.82
21869;BME280;11099;41.564;23.296;2023-04-22T07:34:02;97330.31;;;18.87;64.76
21869;BME280;11099;41.564;23.296;2023-04-22T07:36:28;97351.56;;;18.92;67.69
21869;BME280;11099;41.564;23.296;2023-04-22T07:38:54;97334.28;;;19.27;65.63
21869;BME280;11099;41.564;23.296;2023-04-22T07:41:19;97367.03;;;19.85;64.87
21869;BME280;11099;41.564;23.296;2023-04-22T07:43:45;97386.59;;;19.75;63.77
21869;BME280;11099;41.564;23.296;2023-04-22T07:46:10;97365.59;;;19.61;64.87
21869;BME280;11099;41.564;23.296;2023-04-22T07:48:36;97380.06;;;19.49;64.79
21869;BME280;11099;41.564;23.296;2023-04-22T07:51:02;97403.16;;;19.73;64.89
21869;BME280;11099;41.564;23.296;2023-04-22T07:53:27;97389.69;;;19.77;64.76
21869;BME280;11099;41.564;23.296;2023-04-22T07:55:54;97356.34;;;18.76;67.94
21869;BME280;11099;41.564;23.296;2023-04-22T07:58:20;97306.50;;;18.92;66.71
21869;BME280;11099;41.564;23.296;2023-04-22T08:00:46;97397.75;;;20.11;66.05
21869;BME280;11099;41.564;23.296;2023-04-22T08:03:11;97381.84;;;19.65;65.20
21869;BME280;11099;41.564;23.296;2023-04-22T08:05:37;97321.56;;;19.24;66.68
21869;BME280;11099;41.564;23.296;2023-04-22T08:08:04;97392.47;;;20.21;64.44
21869;BME280;11099;41.564;23.296;2023-04-22T08:10:30;97368.84;;;20.11;64.48
21869;BME280;11099;41.564;23.296;2023-04-22T08:12:55;97371.00;;;19.95;65.27
21869;BME280;11099;41.564;23.296;2023-04-22T08:15:21;97397.38;;;20.46;65.07
21869;BME280;11099;41.564;23.296;2023-04-22T08:17:46;97295.25;;;20.32;61.69
21869;BME280;11099;41.564;23.296;2023-04-22T08:20:13;97281.72;;;20.32;62.54
21869;BME280;11099;41.564;23.296;2023-04-22T08:22:39;97356.53;;;19.80;62.15
21869;BME280;11099;41.564;23.296;2023-04-22T08:25:07;97352.91;;;20.95;62.15
21869;BME280;11099;41.564;23.296;2023-04-22T08:27:33;97329.28;;;20.37;63.09
21869;BME280;11099;41.564;23.296;2023-04-22T08:29:59;97311.75;;;20.16;60.64
21869;BME280;11099;41.564;23.296;2023-04-22T08:32:24;97278.25;;;19.84;58.51
21869;BME280;11099;41.564;23.296;2023-04-22T08:34:50;97366.59;;;20.65;60.24
21869;BME280;11099;41.564;23.296;2023-04-22T08:37:16;97260.56;;;19.53;60.45
21869;BME280;11099;41.564;23.296;2023-04-22T08:39:41;97293.56;;;19.39;63.37
21869;BME280;11099;41.564;23.296;2023-04-22T08:42:07;97334.66;;;19.92;65.25
21869;BME280;11099;41.564;23.296;2023-04-22T08:44:34;97368.84;;;20.11;62.58
21869;BME280;11099;41.564;23.296;2023-04-22T08:47:00;97305.63;;;19.45;65.93
21869;BME280;11099;41.564;23.296;2023-04-22T08:49:25;97350.66;;;20.08;63.65
21869;BME280;11099;41.564;23.296;2023-04-22T08:51:53;97282.41;;;19.74;63.72
21869;BME280;11099;41.564;23.296;2023-04-22T08:54:20;97299.50;;;19.52;64.57
21869;BME280;11099;41.564;23.296;2023-04-22T08:56:49;97357.66;;;20.13;64.10
21869;BME280;11099;41.564;23.296;2023-04-22T08:59:14;97361.88;;;20.51;61.72
21869;BME280;11099;41.564;23.296;2023-04-22T09:01:40;97289.09;;;19.87;61.18
21869;BME280;11099;41.564;23.296;2023-04-22T09:04:09;97317.84;;;20.06;59.57
21869;BME280;11099;41.564;23.296;2023-04-22T09:06:34;97300.47;;;20.11;57.43
21869;BME280;11099;41.564;23.296;2023-04-22T09:09:00;97327.25;;;20.74;55.92
21869;BME280;11099;41.564;23.296;2023-04-22T09:11:27;97324.81;;;21.21;53.94
21869;BME280;11099;41.564;23.296;2023-04-22T09:13:55;97288.28;;;20.86;52.23
21869;BME280;11099;41.564;23.296;2023-04-22T09:16:21;97328.44;;;21.50;49.41
21869;BME280;11099;41.564;23.296;2023-04-22T09:18:46;97348.03;;;21.22;48.56
21869;BME280;11099;41.564;23.296;2023-04-22T09:21:12;97303.44;;;21.01;49.37
21869;BME280;11099;41.564;23.296;2023-04-22T09:23:50;97337.47;;;20.99;47.49
21869;BME280;11099;41.564;23.296;2023-04-22T09:26:23;97263.94;;;20.86;46.47
21869;BME280;11099;41.564;23.296;2023-04-22T09:28:56;97326.03;;;21.30;47.46
21869;BME280;11099;41.564;23.296;2023-04-22T09:31:23;97317.63;;;21.57;46.41
21869;BME280;11099;41.564;23.296;2023-04-22T09:33:54;97245.47;;;21.10;46.49
21869;BME280;11099;41.564;23.296;2023-04-22T09:36:27;97294.41;;;21.63;46.18
21869;BME280;11099;41.564;23.296;2023-04-22T09:38:58;97236.47;;;20.77;47.07
21869;BME280;11099;41.564;23.296;2023-04-22T09:41:42;97260.56;;;20.41;47.85
21869;BME280;11099;41.564;23.296;2023-04-22T09:44:14;97243.66;;;21.35;47.53
21869;BME280;11099;41.564;23.296;2023-04-22T09:46:43;97295.00;;;21.10;48.52
21869;BME280;11099;41.564;23.296;2023-04-22T09:49:09;97307.50;;;21.40;47.96
21869;BME280;11099;41.564;23.296;2023-04-22T09:51:39;97255.88;;;20.93;46.60
21869;BME280;11099;41.564;23.296;2023-04-22T09:54:06;97310.72;;;21.88;47.76
21869;BME280;11099;41.564;23.296;2023-04-22T09:56:53;97304.56;;;22.13;49.65
21869;BME280;11099;41.564;23.296;2023-04-22T09:59:23;97297.19;;;22.06;49.27
21869;BME280;11099;41.564;23.296;2023-04-22T10:01:52;97306.03;;;21.74;49.50
21869;BME280;11099;41.564;23.296;2023-04-22T10:04:18;97240.91;;;21.24;48.32
21869;BME280;11099;41.564;23.296;2023-04-22T10:06:48;97275.38;;;21.35;48.70
21869;BME280;11099;41.564;23.296;2023-04-22T10:09:18;97292.81;;;21.48;48.68
21869;BME280;11099;41.564;23.296;2023-04-22T10:11:45;97291.28;;;21.47;49.91
21869;BME280;11099;41.564;23.296;2023-04-22T10:14:10;97294.41;;;21.63;49.78
21869;BME280;11099;41.564;23.296;2023-04-22T10:16:38;97258.81;;;21.54;48.08
21869;BME280;11099;41.564;23.296;2023-04-22T10:19:06;97192.97;;;20.41;48.47
21869;BME280;11099;41.564;23.296;2023-04-22T10:21:34;97203.41;;;21.26;46.58
21869;BME280;11099;41.564;23.296;2023-04-22T10:24:02;97203.06;;;21.35;46.61
21869;BME280;11099;41.564;23.296;2023-04-22T10:26:38;97290.63;;;22.28;47.36
21869;BME280;11099;41.564;23.296;2023-04-22T10:29:08;97280.16;;;22.41;46.60
21869;BME280;11099;41.564;23.296;2023-04-22T10:31:37;97273.97;;;22.55;44.44
21869;BME280;11099;41.564;23.296;2023-04-22T10:34:13;97211.25;;;21.89;44.81
21869;BME280;11099;41.564;23.296;2023-04-22T10:36:58;97261.94;;;21.92;43.43
21869;BME280;11099;41.564;23.296;2023-04-22T10:39:25;97189.91;;;21.37;45.55
21869;BME280;11099;41.564;23.296;2023-04-22T10:42:06;97256.47;;;21.49;46.78
21869;BME280;11099;41.564;23.296;2023-04-22T10:44:54;97243.38;;;21.76;45.42
21869;BME280;11099;41.564;23.296;2023-04-22T10:47:28;97180.94;;;21.26;44.51
21869;BME280;11099;41.564;23.296;2023-04-22T10:50:23;97257.31;;;22.53;44.38
21869;BME280;11099;41.564;23.296;2023-04-22T10:52:58;97246.09;;;22.37;44.47
21869;BME280;11099;41.564;23.296;2023-04-22T10:55:25;97257.66;;;22.62;43.87
21869;BME280;11099;41.564;23.296;2023-04-22T10:57:51;97258.84;;;22.47;42.79
21869;BME280;11099;41.564;23.296;2023-04-22T11:00:52;97248.38;;;21.92;40.29
21869;BME280;11099;41.564;23.296;2023-04-22T11:03:27;97218.50;;;21.31;40.64
21869;BME280;11099;41.564;23.296;2023-04-22T11:06:20;97245.25;;;21.43;38.23
21869;BME280;11099;41.564;23.296;2023-04-22T11:09:10;97261.19;;;21.88;39.88
21869;BME280;11099;41.564;23.296;2023-04-22T11:11:40;97247.19;;;21.53;39.91
21869;BME280;11099;41.564;23.296;2023-04-22T11:14:07;97180.13;;;20.93;40.13
21869;BME280;11099;41.564;23.296;2023-04-22T11:16:33;97221.50;;;21.08;39.77
21869;BME280;11099;41.564;23.296;2023-04-22T11:18:59;97152.97;;;20.75;39.58
21869;BME280;11099;41.564;23.296;2023-04-22T11:21:25;97170.78;;;20.87;40.49
21869;BME280;11099;41.564;23.296;2023-04-22T11:23:51;97228.09;;;21.07;40.84
21869;BME280;11099;41.564;23.296;2023-04-22T11:26:17;97161.13;;;20.79;41.61
21869;BME280;11099;41.564;23.296;2023-04-22T11:28:46;97254.88;;;21.34;41.10
21869;BME280;11099;41.564;23.296;2023-04-22T11:31:12;97275.78;;;21.40;40.99
21869;BME280;11099;41.564;23.296;2023-04-22T11:33:38;97248.16;;;20.95;41.79
21869;BME280;11099;41.564;23.296;2023-04-22T11:36:08;97280.16;;;20.83;41.80
21869;BME280;11099;41.564;23.296;2023-04-22T11:38:34;97238.06;;;20.26;40.53
21869;BME280;11099;41.564;23.296;2023-04-22T11:41:00;97268.34;;;20.46;43.87
21869;BME280;11099;41.564;23.296;2023-04-22T11:43:25;97195.38;;;19.95;46.29
21869;BME280;11099;41.564;23.296;2023-04-22T11:45:51;97227.28;;;19.41;46.94
21869;BME280;11099;41.564;23.296;2023-04-22T11:48:16;97253.06;;;19.35;47.94
21869;BME280;11099;41.564;23.296;2023-04-22T11:50:42;97222.94;;;18.96;49.57
21869;BME280;11099;41.564;23.296;2023-04-22T11:53:16;97287.28;;;19.28;48.32
21869;BME280;11099;41.564;23.296;2023-04-22T11:55:44;97280.97;;;19.16;49.26
21869;BME280;11099;41.564;23.296;2023-04-22T11:58:13;97229.91;;;19.01;48.10
21869;BME280;11099;41.564;23.296;2023-04-22T12:00:45;97276.44;;;19.24;48.34
21869;BME280;11099;41.564;23.296;2023-04-22T12:03:23;97293.66;;;19.46;48.86
21869;BME280;11099;41.564;23.296;2023-04-22T12:05:54;97262.66;;;18.99;49.35
21869;BME280;11099;41.564;23.296;2023-04-22T12:08:22;97294.19;;;19.25;49.89
21869;BME280;11099;41.564;23.296;2023-04-22T12:10:57;97300.44;;;19.33;48.64
21869;BME280;11099;41.564;23.296;2023-04-22T12:13:40;97291.69;;;19.43;48.19
21869;BME280;11099;41.564;23.296;2023-04-22T12:16:11;97256.00;;;19.23;47.36
21869;BME280;11099;41.564;23.296;2023-04-22T12:18:51;97292.19;;;19.52;45.41
21869;BME280;11099;41.564;23.296;2023-04-22T12:21:20;97290.34;;;19.26;47.31
21869;BME280;11099;41.564;23.296;2023-04-22T12:23:48;97291.28;;;19.41;47.90
21869;BME280;11099;41.564;23.296;2023-04-22T12:26:15;97250.13;;;19.14;47.39
21869;BME280;11099;41.564;23.296;2023-04-22T12:28:42;97294.75;;;19.41;47.33
21869;BME280;11099;41.564;23.296;2023-04-22T12:31:09;97293.53;;;19.02;46.82
21869;BME280;11099;41.564;23.296;2023-04-22T12:33:35;97285.97;;;19.48;47.44
21869;BME280;11099;41.564;23.296;2023-04-22T12:36:01;97281.91;;;19.31;46.36
21869;BME280;11099;41.564;23.296;2023-04-22T12:38:27;97258.56;;;18.56;48.46
21869;BME280;11099;41.564;23.296;2023-04-22T12:40:53;97274.84;;;19.53;46.95
21869;BME280;11099;41.564;23.296;2023-04-22T12:43:19;97155.63;;;19.07;46.09
21869;BME280;11099;41.564;23.296;2023-04-22T12:45:45;97257.00;;;19.79;46.76
21869;BME280;11099;41.564;23.296;2023-04-22T12:48:11;97231.44;;;20.20;46.19
21869;BME280;11099;41.564;23.296;2023-04-22T12:50:36;97169.28;;;19.65;45.59